Time;durP1;ratioP1;P1;durP2;ratioP2;P2;SDS_P1;SDS_P2;PMS_P1;PMS_P2;Temp;Humidity;BMP_temperature;BMP_pressure;BME280_temperature;BME280_humidity;BME280_pressure;Samples;Min_cycle;Max_cycle;Signal;HPM_P1;HPM_P2
2023/03/27 00:00:09;;;;;;;163.80;119.90;;;3.50;99.90;;;;;;5048870;28;20293;-51
2023/03/27 00:02:37;;;;;;;1594.97;415.47;;;3.50;99.90;;;;;;5048765;28;20248;-50
2023/03/27 00:05:06;;;;;;;1815.73;406.50;;;3.50;99.90;;;;;;5044695;28;20233;-51
2023/03/27 00:07:35;;;;;;;1222.97;370.93;;;3.30;99.90;;;;;;5038611;28;20228;-50
2023/03/27 00:10:06;;;;;;;874.30;347.67;;;3.30;99.90;;;;;;5047238;28;20296;-50
2023/03/27 00:12:34;;;;;;;1999.90;734.10;;;3.30;99.90;;;;;;5048441;28;20282;-50
2023/03/27 00:15:02;;;;;;;1500.17;357.23;;;3.20;99.90;;;;;;5048300;28;20320;-50
2023/03/27 00:17:30;;;;;;;230.03;158.73;;;3.20;99.90;;;;;;5048329;28;20202;-51
2023/03/27 00:19:58;;;;;;;1676.40;409.50;;;3.10;99.90;;;;;;5046073;28;20578;-51
2023/03/27 00:22:28;;;;;;;1999.90;776.73;;;3.10;99.90;;;;;;5048443;28;20233;-51
2023/03/27 00:24:56;;;;;;;561.93;203.47;;;3.10;99.90;;;;;;5048290;28;20236;-50
2023/03/27 00:27:26;;;;;;;1132.53;344.63;;;3.10;99.90;;;;;;5048151;28;20302;-51
2023/03/27 00:29:54;;;;;;;1613.90;414.77;;;3.00;99.90;;;;;;5048411;28;20699;-50
2023/03/27 00:32:22;;;;;;;1999.90;555.67;;;3.00;99.90;;;;;;5048191;28;20214;-51
2023/03/27 00:34:50;;;;;;;1999.90;535.57;;;2.90;99.90;;;;;;5046557;28;20297;-51
2023/03/27 00:37:18;;;;;;;1999.90;503.30;;;2.90;99.90;;;;;;5045389;28;20310;-50
2023/03/27 00:39:48;;;;;;;160.17;92.30;;;2.80;99.90;;;;;;5040393;28;20233;-50
2023/03/27 00:42:21;;;;;;;154.33;62.10;;;2.80;99.90;;;;;;5044465;28;20216;-50
2023/03/27 00:44:52;;;;;;;1048.20;301.20;;;2.80;99.90;;;;;;5049417;28;20309;-51
2023/03/27 00:47:29;;;;;;;98.73;85.83;;;2.80;99.90;;;;;;5051875;28;20578;-50
2023/03/27 00:49:59;;;;;;;379.13;260.03;;;2.80;99.90;;;;;;5041251;28;20201;-51
2023/03/27 00:52:28;;;;;;;217.00;193.87;;;2.80;99.90;;;;;;5044130;28;20213;-50
2023/03/27 00:54:58;;;;;;;179.87;163.43;;;2.80;99.90;;;;;;5051833;28;20341;-51
2023/03/27 00:57:27;;;;;;;180.93;162.17;;;2.80;99.90;;;;;;5050715;28;20236;-51
2023/03/27 00:59:59;;;;;;;455.43;207.23;;;2.90;99.90;;;;;;5049932;28;20659;-50
2023/03/27 01:02:28;;;;;;;184.50;166.87;;;2.80;99.90;;;;;;5045886;28;20220;-50
2023/03/27 01:04:57;;;;;;;810.57;349.97;;;2.80;99.90;;;;;;5046855;28;20359;-51
2023/03/27 01:07:25;;;;;;;1999.90;600.30;;;2.80;99.90;;;;;;5040716;28;20300;-51
2023/03/27 01:09:53;;;;;;;1896.80;403.20;;;2.80;99.90;;;;;;5037914;28;20311;-51
2023/03/27 01:12:34;;;;;;;1454.07;393.93;;;2.70;99.90;;;;;;5050035;28;20315;-50
2023/03/27 01:15:25;;;;;;;1290.07;377.63;;;2.70;99.90;;;;;;5043332;28;20243;-50
2023/03/27 01:18:03;;;;;;;1965.73;533.43;;;2.60;99.90;;;;;;5039509;28;20303;-52
2023/03/27 01:21:21;;;;;;;1999.90;586.43;;;2.60;99.90;;;;;;5050268;28;20680;-50
2023/03/27 01:24:37;;;;;;;1999.90;890.87;;;2.50;99.90;;;;;;5051443;28;20231;-51
2023/03/27 01:27:10;;;;;;;1999.90;740.83;;;2.40;99.90;;;;;;5017963;28;20599;-51
2023/03/27 01:29:47;;;;;;;1990.77;668.90;;;2.40;99.90;;;;;;5051265;28;20208;-51
2023/03/27 01:32:52;;;;;;;1231.37;399.87;;;2.40;99.90;;;;;;5050949;28;20729;-50
2023/03/27 01:35:52;;;;;;;1999.90;621.57;;;2.30;99.90;;;;;;5048902;28;20245;-50
2023/03/27 01:39:05;;;;;;;1629.00;430.10;;;2.30;99.90;;;;;;5050939;28;20590;-50
2023/03/27 01:41:40;;;;;;;1999.90;790.80;;;2.30;99.90;;;;;;5031226;28;20208;-50
2023/03/27 01:44:14;;;;;;;1999.90;566.63;;;2.20;99.90;;;;;;5041496;28;20209;-50
2023/03/27 01:46:50;;;;;;;1999.90;793.57;;;2.20;99.90;;;;;;5034131;28;20250;-51
2023/03/27 01:49:25;;;;;;;1999.90;627.73;;;2.10;99.90;;;;;;5034194;28;20222;-50
2023/03/27 01:51:58;;;;;;;1999.90;531.53;;;2.10;99.90;;;;;;5049767;28;20298;-50
2023/03/27 01:54:30;;;;;;;931.73;319.13;;;2.10;99.90;;;;;;5032171;28;20321;-51
2023/03/27 01:57:04;;;;;;;1999.90;832.20;;;2.10;99.90;;;;;;5042099;28;20226;-50
2023/03/27 01:59:37;;;;;;;1999.90;547.57;;;2.00;99.90;;;;;;5050220;28;20732;-50
2023/03/27 02:02:11;;;;;;;1999.90;779.90;;;2.00;99.90;;;;;;5038746;28;20214;-51
2023/03/27 02:04:43;;;;;;;1999.90;686.93;;;2.00;99.90;;;;;;5048917;28;20289;-51
2023/03/27 02:07:18;;;;;;;1973.53;474.73;;;1.90;99.90;;;;;;5050603;28;20203;-50
2023/03/27 02:09:49;;;;;;;1613.77;448.27;;;1.90;99.90;;;;;;5050431;28;20315;-50
2023/03/27 02:12:21;;;;;;;1999.90;691.20;;;1.90;99.90;;;;;;5050159;28;20218;-51
2023/03/27 02:14:54;;;;;;;1055.33;402.10;;;1.90;99.90;;;;;;5050011;28;20728;-51
2023/03/27 02:17:25;;;;;;;1999.90;753.63;;;1.80;99.90;;;;;;5050259;28;20290;-51
2023/03/27 02:19:58;;;;;;;1447.47;390.93;;;1.80;99.90;;;;;;5035863;28;20206;-51
2023/03/27 02:22:27;;;;;;;357.57;253.07;;;1.80;99.90;;;;;;5050236;28;20211;-51
2023/03/27 02:25:26;;;;;;;726.73;393.13;;;1.80;99.90;;;;;;5038624;28;20703;-50
2023/03/27 02:28:22;;;;;;;1118.40;315.60;;;1.80;99.90;;;;;;5050125;28;20212;-50
2023/03/27 02:31:00;;;;;;;1999.90;927.77;;;1.70;99.90;;;;;;5028125;28;20218;-51
2023/03/27 02:34:03;;;;;;;1999.90;748.13;;;1.70;99.90;;;;;;5049823;28;20226;-51
2023/03/27 02:36:43;;;;;;;1999.90;733.10;;;1.60;99.90;;;;;;5043551;28;20322;-50
2023/03/27 02:39:15;;;;;;;511.90;381.23;;;1.70;99.90;;;;;;5050231;28;20214;-51
2023/03/27 02:41:49;;;;;;;1058.03;485.83;;;1.70;99.90;;;;;;5036062;28;20286;-50
2023/03/27 02:44:27;;;;;;;1663.33;585.53;;;1.70;99.90;;;;;;5049828;28;20205;-51
2023/03/27 02:47:02;;;;;;;304.17;270.93;;;1.70;99.90;;;;;;5049709;28;20238;-50
2023/03/27 02:49:36;;;;;;;809.67;413.07;;;1.60;99.90;;;;;;5049619;28;20670;-50
2023/03/27 02:52:09;;;;;;;566.23;355.47;;;1.60;99.90;;;;;;5047999;28;20209;-51
2023/03/27 02:54:42;;;;;;;1999.90;858.80;;;1.60;99.90;;;;;;5038196;28;20353;-50
2023/03/27 02:57:15;;;;;;;452.73;408.57;;;1.50;99.90;;;;;;5049269;28;20714;-51
2023/03/27 02:59:50;;;;;;;1528.20;611.43;;;1.60;99.90;;;;;;5049754;28;20757;-53
2023/03/27 03:02:23;;;;;;;395.93;356.70;;;1.60;99.90;;;;;;5049534;28;20681;-50
2023/03/27 03:04:56;;;;;;;985.13;411.80;;;1.60;99.90;;;;;;5049544;28;20205;-50
2023/03/27 03:07:25;;;;;;;1294.37;563.47;;;1.60;99.90;;;;;;5041575;28;20671;-50
2023/03/27 03:09:53;;;;;;;1201.17;502.00;;;1.50;99.90;;;;;;5037980;28;20256;-50
2023/03/27 03:12:22;;;;;;;431.33;374.47;;;1.50;99.90;;;;;;5044171;28;20300;-51
2023/03/27 03:14:51;;;;;;;1731.57;583.07;;;1.50;99.90;;;;;;5049316;28;20237;-51
2023/03/27 03:17:20;;;;;;;1362.37;568.60;;;1.50;99.90;;;;;;5049378;28;20216;-51
2023/03/27 03:19:48;;;;;;;1735.87;630.57;;;1.50;99.90;;;;;;5035575;28;20304;-51
2023/03/27 03:22:16;;;;;;;1880.30;679.83;;;1.40;99.90;;;;;;5049568;28;20240;-51
2023/03/27 03:24:44;;;;;;;1999.90;633.97;;;1.40;99.90;;;;;;5049179;28;20208;-51
2023/03/27 03:27:13;;;;;;;1999.90;778.30;;;1.40;99.90;;;;;;5049367;28;20725;-51
2023/03/27 03:29:42;;;;;;;387.63;318.57;;;1.40;99.90;;;;;;5048970;28;20207;-51
2023/03/27 03:32:11;;;;;;;1265.57;722.63;;;1.50;99.90;;;;;;5048792;28;20209;-51
2023/03/27 03:34:40;;;;;;;1324.13;594.67;;;1.40;99.90;;;;;;5047307;28;20269;-51
2023/03/27 03:37:09;;;;;;;266.93;240.97;;;1.40;99.90;;;;;;5049185;28;20277;-50
2023/03/27 03:39:37;;;;;;;722.80;322.93;;;1.40;99.90;;;;;;5048870;28;20245;-51
2023/03/27 03:42:05;;;;;;;429.93;389.57;;;1.30;99.90;;;;;;5049469;28;20294;-51
2023/03/27 03:44:33;;;;;;;1812.90;601.70;;;1.30;99.90;;;;;;5046003;28;20288;-51
2023/03/27 03:47:01;;;;;;;976.40;523.33;;;1.30;99.90;;;;;;5048687;28;20312;-51
2023/03/27 03:49:31;;;;;;;1999.90;888.80;;;1.30;99.90;;;;;;5048894;28;20224;-51
2023/03/27 03:51:59;;;;;;;1591.70;475.23;;;1.30;99.90;;;;;;5038208;28;20326;-51
2023/03/27 03:54:31;;;;;;;1165.47;401.10;;;1.30;99.90;;;;;;5036647;28;20222;-51
2023/03/27 03:56:59;;;;;;;328.03;292.10;;;1.30;99.90;;;;;;5047037;28;20416;-51
2023/03/27 03:59:28;;;;;;;1999.90;709.30;;;1.20;99.90;;;;;;5046686;28;20206;-51
2023/03/27 04:01:56;;;;;;;1999.90;648.13;;;1.30;99.90;;;;;;5041280;28;20555;-51
2023/03/27 04:04:25;;;;;;;942.83;247.87;;;1.20;99.90;;;;;;5037079;28;20206;-51
2023/03/27 04:06:57;;;;;;;381.90;248.33;;;1.20;99.90;;;;;;5036954;28;20309;-51
2023/03/27 04:09:25;;;;;;;894.53;365.30;;;1.20;99.90;;;;;;5028788;28;20202;-51
2023/03/27 04:11:53;;;;;;;291.97;249.87;;;1.20;99.90;;;;;;5036221;28;20221;-51
2023/03/27 04:14:21;;;;;;;218.50;193.43;;;1.20;99.90;;;;;;5031422;28;20220;-51
2023/03/27 04:16:50;;;;;;;301.47;267.97;;;1.20;99.90;;;;;;5033719;28;20226;-50
2023/03/27 04:19:18;;;;;;;1641.97;369.57;;;1.20;99.90;;;;;;5036315;28;20297;-50
2023/03/27 04:21:47;;;;;;;1626.43;524.50;;;1.20;99.90;;;;;;5037775;28;20301;-50
2023/03/27 04:24:17;;;;;;;1832.83;580.13;;;1.10;99.90;;;;;;5047396;28;20206;-51
2023/03/27 04:26:45;;;;;;;1152.83;421.67;;;1.20;99.90;;;;;;5047165;28;20705;-51
2023/03/27 04:29:13;;;;;;;904.67;347.20;;;1.10;99.90;;;;;;5042212;28;20289;-51
2023/03/27 04:31:45;;;;;;;794.13;278.10;;;1.10;99.90;;;;;;5039901;28;20213;-50
2023/03/27 04:34:13;;;;;;;1999.90;855.87;;;1.10;99.90;;;;;;5047246;28;20216;-51
2023/03/27 04:36:41;;;;;;;1501.70;513.97;;;1.10;99.90;;;;;;5044448;28;20314;-51
2023/03/27 04:39:09;;;;;;;152.53;129.50;;;1.10;99.90;;;;;;5040866;28;20293;-51
2023/03/27 04:41:39;;;;;;;207.87;189.40;;;1.10;99.90;;;;;;5038008;28;20297;-51
2023/03/27 04:44:07;;;;;;;574.57;343.30;;;1.10;99.90;;;;;;5029296;28;20206;-51
2023/03/27 04:46:35;;;;;;;1999.90;560.47;;;1.10;99.90;;;;;;5034665;28;20227;-51
2023/03/27 04:49:04;;;;;;;642.77;316.87;;;1.00;99.90;;;;;;5026086;28;20211;-51
2023/03/27 04:51:32;;;;;;;1206.47;412.60;;;1.00;99.90;;;;;;5028854;28;20816;-51
2023/03/27 04:54:03;;;;;;;1123.13;432.73;;;1.00;99.90;;;;;;5034670;28;20240;-50
2023/03/27 04:56:32;;;;;;;742.27;283.83;;;1.00;99.90;;;;;;5029063;28;20231;-51
2023/03/27 04:59:03;;;;;;;463.13;303.00;;;1.00;99.90;;;;;;5033928;28;20825;-52
2023/03/27 05:01:32;;;;;;;556.07;273.33;;;1.00;99.90;;;;;;5043913;28;20233;-50
2023/03/27 05:04:02;;;;;;;256.50;228.60;;;1.00;99.90;;;;;;5033616;28;20226;-51
2023/03/27 05:06:31;;;;;;;265.97;240.23;;;1.00;99.90;;;;;;5036584;28;20687;-50
2023/03/27 05:08:59;;;;;;;233.33;208.03;;;1.00;99.90;;;;;;5030530;28;20297;-51
2023/03/27 05:11:27;;;;;;;156.00;140.87;;;1.00;99.90;;;;;;5036425;28;20205;-51
2023/03/27 05:13:55;;;;;;;135.90;117.67;;;1.00;99.90;;;;;;5044906;28;20210;-51
2023/03/27 05:16:25;;;;;;;235.07;199.47;;;0.90;99.90;;;;;;5033894;28;20234;-51
2023/03/27 05:18:53;;;;;;;205.67;184.13;;;0.90;99.90;;;;;;5027391;28;20210;-51
2023/03/27 05:21:21;;;;;;;194.27;175.77;;;0.90;99.90;;;;;;5041020;28;20221;-51
2023/03/27 05:23:49;;;;;;;185.30;166.33;;;1.00;99.90;;;;;;5030979;28;20589;-51
2023/03/27 05:26:17;;;;;;;218.27;196.53;;;1.00;99.90;;;;;;5030084;28;20311;-50
2023/03/27 05:28:46;;;;;;;149.57;104.97;;;1.00;99.90;;;;;;5038249;28;20297;-51
2023/03/27 05:31:13;;;;;;;109.43;97.80;;;1.00;99.90;;;;;;5029092;28;20300;-51
2023/03/27 05:33:44;;;;;;;147.00;131.60;;;1.00;99.90;;;;;;5031053;28;20305;-50
2023/03/27 05:36:14;;;;;;;131.17;116.97;;;1.00;99.90;;;;;;5029467;28;20332;-56
2023/03/27 05:38:43;;;;;;;122.90;110.87;;;1.10;99.90;;;;;;5030512;28;20209;-51
2023/03/27 05:41:11;;;;;;;96.63;86.83;;;1.10;99.90;;;;;;5030303;28;20202;-51
2023/03/27 05:43:39;;;;;;;140.30;126.90;;;1.10;99.90;;;;;;5030364;28;20271;-50
2023/03/27 05:46:07;;;;;;;109.03;98.00;;;1.00;99.90;;;;;;5030891;28;20222;-51
2023/03/27 05:48:35;;;;;;;117.10;97.63;;;1.10;99.90;;;;;;5028411;28;20206;-49
2023/03/27 05:51:05;;;;;;;110.37;99.23;;;1.10;99.90;;;;;;5030685;28;20216;-50
2023/03/27 05:53:35;;;;;;;87.40;75.37;;;1.10;99.90;;;;;;5027471;28;20296;-51
2023/03/27 05:56:03;;;;;;;122.83;110.60;;;1.30;99.90;;;;;;5023360;28;20264;-51
2023/03/27 05:58:31;;;;;;;187.03;166.77;;;1.40;99.90;;;;;;5043513;28;20293;-50
2023/03/27 06:00:59;;;;;;;96.20;87.07;;;1.50;99.90;;;;;;5050106;28;20320;-51
2023/03/27 06:03:28;;;;;;;64.53;37.50;;;1.60;99.90;;;;;;5022136;28;20684;-51
2023/03/27 06:05:58;;;;;;;63.27;41.33;;;1.70;99.90;;;;;;5036520;28;20680;-51
2023/03/27 06:08:28;;;;;;;104.30;81.03;;;1.80;99.90;;;;;;5041755;28;20317;-51
2023/03/27 06:10:57;;;;;;;82.00;64.70;;;1.90;99.90;;;;;;5046251;28;20736;-51
2023/03/27 06:13:25;;;;;;;63.77;39.80;;;2.00;99.90;;;;;;5030267;28;20218;-51
2023/03/27 06:15:54;;;;;;;80.97;56.87;;;2.00;99.90;;;;;;5029382;28;20237;-51
2023/03/27 06:18:23;;;;;;;137.17;110.03;;;2.10;99.90;;;;;;5028981;28;20831;-51
2023/03/27 06:20:51;;;;;;;83.23;60.23;;;2.30;99.90;;;;;;5029993;28;20217;-51
2023/03/27 06:23:19;;;;;;;96.67;77.67;;;2.50;99.90;;;;;;5029112;28;20347;-51
2023/03/27 06:25:50;;;;;;;82.57;74.10;;;2.70;99.90;;;;;;5029902;28;20313;-51
2023/03/27 06:28:18;;;;;;;97.93;66.03;;;2.80;99.90;;;;;;5029218;28;20203;-51
2023/03/27 06:30:46;;;;;;;87.30;68.13;;;2.70;99.90;;;;;;5029594;28;20671;-51
2023/03/27 06:33:15;;;;;;;144.00;74.83;;;2.90;99.90;;;;;;5028975;28;21002;-51
2023/03/27 06:35:44;;;;;;;88.47;67.33;;;3.00;99.90;;;;;;5039364;28;20237;-51
2023/03/27 06:38:20;;;;;;;90.43;78.77;;;2.90;99.90;;;;;;5029988;28;20599;-51
2023/03/27 06:40:50;;;;;;;213.93;192.90;;;3.10;99.90;;;;;;5029813;28;20360;-51
2023/03/27 06:43:21;;;;;;;283.37;123.83;;;3.50;99.90;;;;;;5028649;28;20212;-51
2023/03/27 06:45:50;;;;;;;284.80;118.97;;;3.70;99.90;;;;;;5029876;28;20741;-51
2023/03/27 06:48:19;;;;;;;241.33;145.43;;;3.80;99.90;;;;;;5028636;28;20333;-51
2023/03/27 06:50:51;;;;;;;735.23;433.87;;;4.00;99.90;;;;;;5024030;28;20276;-51
2023/03/27 06:53:19;;;;;;;169.00;146.80;;;4.30;99.90;;;;;;5026417;28;20209;-51
2023/03/27 06:55:51;;;;;;;1999.90;920.70;;;4.70;99.90;;;;;;5033933;28;20328;-51
2023/03/27 06:58:20;;;;;;;1999.90;868.53;;;5.10;99.90;;;;;;5034941;28;20209;-51
2023/03/27 07:00:50;;;;;;;1999.90;828.07;;;5.40;99.90;;;;;;5030609;28;20289;-51
2023/03/27 07:03:20;;;;;;;1999.90;944.13;;;5.80;99.90;;;;;;5028754;28;20686;-51
2023/03/27 07:05:48;;;;;;;1999.90;863.03;;;6.00;99.90;;;;;;5028559;28;20229;-51
2023/03/27 07:08:17;;;;;;;1999.90;824.37;;;6.30;99.90;;;;;;5028845;28;20202;-51
2023/03/27 07:10:53;;;;;;;1999.90;943.80;;;6.40;99.90;;;;;;5028845;28;20264;-51
2023/03/27 07:13:24;;;;;;;1999.90;954.90;;;6.70;99.90;;;;;;5028773;28;20222;-51
2023/03/27 07:15:52;;;;;;;1999.90;999.90;;;7.00;99.90;;;;;;5027859;28;20701;-51
2023/03/27 07:18:21;;;;;;;1999.90;828.43;;;7.10;99.90;;;;;;5028980;28;20313;-51
2023/03/27 07:20:50;;;;;;;1999.90;999.90;;;7.10;99.90;;;;;;5028084;28;20213;-51
2023/03/27 07:23:18;;;;;;;1999.90;999.90;;;6.80;99.90;;;;;;5028907;28;20214;-51
2023/03/27 07:25:48;;;;;;;1999.90;881.33;;;6.40;99.90;;;;;;5028014;28;20313;-51
2023/03/27 07:28:18;;;;;;;1999.90;885.77;;;6.40;99.90;;;;;;5028829;28;20605;-51
2023/03/27 07:30:46;;;;;;;1897.43;769.23;;;6.40;99.90;;;;;;5028246;28;20659;-51
2023/03/27 07:33:14;;;;;;;1999.90;933.30;;;6.20;99.90;;;;;;5028723;28;20207;-51
2023/03/27 07:35:42;;;;;;;1999.90;794.57;;;6.10;99.90;;;;;;5028211;28;20258;-51
2023/03/27 07:38:11;;;;;;;1999.90;779.57;;;6.00;99.90;;;;;;5020892;28;20625;-51
2023/03/27 07:40:39;;;;;;;1999.90;952.13;;;5.90;99.90;;;;;;5027481;28;20280;-51
2023/03/27 07:43:08;;;;;;;1333.67;730.17;;;5.80;99.90;;;;;;5018629;28;20294;-51
2023/03/27 07:45:37;;;;;;;1253.67;645.13;;;5.80;99.90;;;;;;5027449;28;20229;-51
2023/03/27 07:48:07;;;;;;;1999.90;999.90;;;5.80;99.90;;;;;;5028169;28;20213;-51
2023/03/27 07:50:36;;;;;;;1805.70;606.30;;;5.70;99.90;;;;;;5027048;28;20671;-51
2023/03/27 07:53:06;;;;;;;1097.33;541.47;;;5.70;99.90;;;;;;5027843;28;20207;-51
2023/03/27 07:55:36;;;;;;;1944.40;772.07;;;6.10;99.90;;;;;;5042319;28;20573;-51
2023/03/27 07:58:05;;;;;;;1999.90;959.77;;;6.10;99.90;;;;;;5043962;28;20226;-51
2023/03/27 08:00:35;;;;;;;891.80;481.30;;;6.10;99.90;;;;;;5043322;28;20232;-51
2023/03/27 08:03:09;;;;;;;1999.90;835.10;;;5.90;99.90;;;;;;5044162;28;20220;-51
2023/03/27 08:05:38;;;;;;;492.03;444.33;;;5.90;99.90;;;;;;5042488;28;20225;-51
2023/03/27 08:08:06;;;;;;;1999.90;806.30;;;5.90;99.90;;;;;;5039879;28;20691;-51
2023/03/27 08:10:34;;;;;;;1999.90;999.90;;;5.90;99.90;;;;;;5044550;28;20291;-50
2023/03/27 08:13:02;;;;;;;1999.90;999.90;;;5.90;99.90;;;;;;5037373;28;20606;-51
2023/03/27 08:15:30;;;;;;;1557.83;643.63;;;5.80;99.90;;;;;;5049537;28;20229;-51
2023/03/27 08:17:59;;;;;;;789.17;314.60;;;5.70;99.90;;;;;;5037689;28;20221;-51
2023/03/27 08:20:29;;;;;;;1601.90;523.50;;;5.70;99.90;;;;;;5052046;28;20704;-51
2023/03/27 08:22:59;;;;;;;1999.90;999.90;;;5.80;99.90;;;;;;5047073;28;20690;-51
2023/03/27 08:25:28;;;;;;;1999.90;841.13;;;5.80;99.90;;;;;;5050046;28;20657;-49
2023/03/27 08:27:56;;;;;;;1999.90;878.53;;;5.70;99.90;;;;;;5043965;28;20292;-51
2023/03/27 08:30:24;;;;;;;1999.90;731.30;;;5.80;99.90;;;;;;5049937;28;20945;-51
2023/03/27 08:32:52;;;;;;;998.93;451.07;;;5.80;99.90;;;;;;5043990;28;20646;-50
2023/03/27 08:35:20;;;;;;;571.83;225.17;;;5.70;99.90;;;;;;5045347;28;20230;-53
2023/03/27 08:37:51;;;;;;;1999.90;785.90;;;5.70;99.90;;;;;;5039698;28;20226;-50
2023/03/27 08:40:24;;;;;;;1067.43;407.70;;;5.50;99.90;;;;;;5033238;28;20247;-51
2023/03/27 08:42:57;;;;;;;1999.43;506.60;;;5.60;99.90;;;;;;5031037;28;20244;-50
2023/03/27 08:45:28;;;;;;;1813.90;561.30;;;5.70;99.90;;;;;;5031710;28;20229;-51
2023/03/27 08:48:01;;;;;;;605.67;248.27;;;5.60;99.90;;;;;;5030948;28;20240;-51
2023/03/27 08:50:36;;;;;;;242.40;108.50;;;5.70;99.90;;;;;;5031351;28;20201;-51
2023/03/27 08:53:14;;;;;;;660.87;247.27;;;5.80;99.90;;;;;;5030194;28;20749;-51
2023/03/27 08:55:45;;;;;;;1999.90;647.70;;;5.90;99.90;;;;;;5042218;28;20813;-51
2023/03/27 08:58:18;;;;;;;1002.67;332.10;;;5.80;99.90;;;;;;5034446;28;20261;-51
2023/03/27 09:00:53;;;;;;;484.63;226.77;;;5.80;99.90;;;;;;5048691;28;20619;-50
2023/03/27 09:03:26;;;;;;;809.30;361.80;;;5.70;99.90;;;;;;5038757;28;20296;-51
2023/03/27 09:05:59;;;;;;;1881.13;411.17;;;5.80;99.90;;;;;;5048957;28;20259;-51
2023/03/27 09:08:41;;;;;;;1154.43;434.60;;;6.20;99.90;;;;;;5038151;28;20293;-51
2023/03/27 09:11:18;;;;;;;1451.20;478.87;;;6.60;99.90;;;;;;5047005;28;20212;-51
2023/03/27 09:13:51;;;;;;;1999.90;870.77;;;7.00;99.90;;;;;;5024866;28;20213;-51
2023/03/27 09:16:25;;;;;;;1991.20;539.13;;;7.20;99.90;;;;;;5039358;28;20283;-51
2023/03/27 09:19:01;;;;;;;1602.17;472.17;;;7.10;99.90;;;;;;5032184;28;20268;-52
2023/03/27 09:21:38;;;;;;;1999.90;781.67;;;6.70;99.90;;;;;;5043830;28;20293;-51
2023/03/27 09:24:14;;;;;;;1957.87;555.33;;;6.30;99.90;;;;;;5031505;28;20248;-52
2023/03/27 09:26:43;;;;;;;1999.90;728.63;;;5.90;99.90;;;;;;5038782;28;20240;-51
2023/03/27 09:29:17;;;;;;;1999.90;857.80;;;5.90;99.90;;;;;;5043705;28;20301;-51
2023/03/27 09:31:48;;;;;;;736.17;255.47;;;6.10;99.90;;;;;;5044446;28;20209;-50
2023/03/27 09:34:21;;;;;;;1024.27;377.90;;;6.60;99.90;;;;;;5043702;28;20206;-51
2023/03/27 09:36:50;;;;;;;1999.90;999.90;;;6.90;99.90;;;;;;5030672;28;20325;-51
2023/03/27 09:39:24;;;;;;;1999.90;953.67;;;6.80;99.90;;;;;;5029747;28;20230;-51
2023/03/27 09:41:55;;;;;;;1999.90;999.90;;;6.70;99.90;;;;;;5030769;28;20211;-51
2023/03/27 09:44:25;;;;;;;1999.90;999.90;;;6.40;99.90;;;;;;5029637;28;20287;-51
2023/03/27 09:46:57;;;;;;;1143.33;798.03;;;6.40;99.90;;;;;;5030543;28;20695;-51
2023/03/27 09:49:26;;;;;;;1999.90;947.27;;;6.50;99.90;;;;;;5029553;28;20276;-51
2023/03/27 09:51:57;;;;;;;1999.90;999.90;;;6.70;99.90;;;;;;5039378;28;20658;-51
2023/03/27 09:54:28;;;;;;;1999.90;999.90;;;6.90;99.90;;;;;;5035925;28;20288;-51
2023/03/27 09:57:04;;;;;;;1999.90;999.90;;;6.70;99.90;;;;;;5047849;28;20234;-51
2023/03/27 09:59:36;;;;;;;1999.90;999.90;;;7.00;99.90;;;;;;5040718;28;20229;-51
2023/03/27 10:02:17;;;;;;;1999.90;999.90;;;7.10;99.90;;;;;;5048875;28;20202;-51
2023/03/27 10:04:58;;;;;;;1999.90;999.90;;;7.20;99.90;;;;;;5031552;28;20209;-51
2023/03/27 10:07:27;;;;;;;1999.90;999.90;;;7.20;99.90;;;;;;5048226;28;20209;-51
2023/03/27 10:10:08;;;;;;;1999.90;999.90;;;6.80;99.90;;;;;;5040115;28;20198;-51
2023/03/27 10:12:37;;;;;;;1999.90;696.00;;;6.40;99.90;;;;;;5037015;28;20241;-51
2023/03/27 10:15:23;;;;;;;1999.90;916.27;;;6.10;99.90;;;;;;5039228;28;20705;-50
2023/03/27 10:17:51;;;;;;;1999.90;738.80;;;5.80;99.90;;;;;;5037042;28;20738;-51
2023/03/27 10:20:21;;;;;;;951.83;350.70;;;5.50;99.90;;;;;;5030146;28;20228;-51
2023/03/27 10:22:53;;;;;;;1999.90;606.57;;;5.60;99.90;;;;;;5012608;28;20213;-52
2023/03/27 10:25:30;;;;;;;1999.90;620.97;;;5.60;99.90;;;;;;5032900;28;20245;-52
2023/03/27 10:28:10;;;;;;;1243.83;393.57;;;5.80;99.90;;;;;;5045727;28;20888;-51
2023/03/27 10:30:39;;;;;;;1118.30;372.23;;;6.00;99.90;;;;;;5034056;28;20237;-50
2023/03/27 10:33:08;;;;;;;89.17;54.80;;;6.10;99.90;;;;;;5048813;28;20307;-51
2023/03/27 10:35:39;;;;;;;924.10;248.83;;;6.20;99.90;;;;;;5038544;28;20843;-51
2023/03/27 10:38:12;;;;;;;1577.47;395.83;;;6.50;99.90;;;;;;5046107;28;20548;-51
2023/03/27 10:40:48;;;;;;;479.40;155.73;;;6.70;99.90;;;;;;5025436;28;20206;-50
2023/03/27 10:43:24;;;;;;;1684.87;360.60;;;6.50;99.90;;;;;;5045461;28;20292;-51
2023/03/27 10:45:55;;;;;;;598.17;186.03;;;6.10;99.90;;;;;;5037919;28;20319;-51
2023/03/27 10:48:39;;;;;;;764.23;255.67;;;5.90;99.90;;;;;;5047354;28;20205;-52
2023/03/27 10:51:23;;;;;;;363.50;136.73;;;6.00;99.90;;;;;;5031435;28;20302;-51
2023/03/27 10:54:11;;;;;;;1278.10;312.53;;;6.20;99.90;;;;;;5030594;28;20217;-51
2023/03/27 10:56:50;;;;;;;524.70;220.90;;;6.70;99.90;;;;;;5037299;28;20225;-51
2023/03/27 10:59:23;;;;;;;498.30;325.73;;;7.00;99.90;;;;;;5028587;28;20722;-51
2023/03/27 11:02:15;;;;;;;333.60;146.03;;;7.20;99.90;;;;;;5028618;28;20263;-52
2023/03/27 11:04:48;;;;;;;1946.00;519.77;;;7.50;99.90;;;;;;5029542;28;20232;-51
2023/03/27 11:07:24;;;;;;;1999.90;745.07;;;7.80;99.90;;;;;;5029145;28;20695;-51
2023/03/27 11:09:58;;;;;;;1999.90;999.90;;;7.90;99.90;;;;;;5027787;28;20293;-51
2023/03/27 11:12:31;;;;;;;1999.90;998.53;;;7.80;99.90;;;;;;5028592;28;20305;-52
2023/03/27 11:15:06;;;;;;;1999.90;999.90;;;7.40;99.90;;;;;;5025953;28;20217;-52
2023/03/27 11:17:41;;;;;;;1999.90;744.87;;;6.90;99.90;;;;;;5028222;28;20241;-52
2023/03/27 11:20:20;;;;;;;1089.70;367.53;;;6.50;99.90;;;;;;5026054;28;20225;-51
2023/03/27 11:22:54;;;;;;;1316.00;355.50;;;6.10;99.90;;;;;;5028564;28;20271;-51
2023/03/27 11:25:31;;;;;;;1468.27;440.97;;;5.90;99.90;;;;;;5027767;28;20229;-50
2023/03/27 11:28:10;;;;;;;1977.40;556.20;;;6.10;99.90;;;;;;5028598;28;20202;-51
2023/03/27 11:30:43;;;;;;;1925.17;475.30;;;6.20;99.90;;;;;;5016263;28;20584;-51
2023/03/27 11:33:34;;;;;;;1999.90;730.80;;;6.40;99.90;;;;;;5026632;28;20738;-51
2023/03/27 11:36:22;;;;;;;1999.90;999.90;;;6.60;99.90;;;;;;5021808;28;20264;-51
2023/03/27 11:38:57;;;;;;;1999.90;648.90;;;6.70;99.90;;;;;;5027697;28;20833;-51
2023/03/27 11:41:25;;;;;;;1356.50;555.50;;;6.80;99.90;;;;;;5028215;28;20237;-51
2023/03/27 11:43:55;;;;;;;1999.90;999.90;;;7.10;99.90;;;;;;5027347;28;20808;-51
2023/03/27 11:46:36;;;;;;;1442.00;668.17;;;7.20;99.90;;;;;;5028256;28;20311;-52
2023/03/27 11:49:16;;;;;;;1999.90;884.47;;;7.20;99.90;;;;;;5027520;28;20196;-51
2023/03/27 11:51:56;;;;;;;1999.90;862.10;;;7.30;99.90;;;;;;5028176;28;20291;-51
2023/03/27 11:54:47;;;;;;;1999.90;887.40;;;7.70;99.90;;;;;;5014454;28;20297;-51
2023/03/27 11:57:22;;;;;;;1999.90;999.90;;;7.90;99.90;;;;;;5044039;28;20209;-52
2023/03/27 12:00:15;;;;;;;1999.90;999.90;;;7.60;99.90;;;;;;5037484;28;20236;-52
2023/03/27 12:03:07;;;;;;;1999.90;999.90;;;7.70;99.90;;;;;;5027527;28;20214;-51
2023/03/27 12:05:47;;;;;;;1999.90;911.33;;;7.60;99.90;;;;;;5024381;28;20318;-51
2023/03/27 12:08:21;;;;;;;1999.90;998.50;;;7.90;99.90;;;;;;5017640;28;20209;-51
2023/03/27 12:10:52;;;;;;;1999.90;999.90;;;7.90;99.90;;;;;;5027725;28;20263;-51
2023/03/27 12:13:47;;;;;;;1999.90;999.90;;;7.80;99.90;;;;;;5028107;28;20222;-51
2023/03/27 12:16:52;;;;;;;1999.90;934.43;;;7.90;99.90;;;;;;5026211;28;20250;-51
2023/03/27 12:19:34;;;;;;;1999.90;999.90;;;8.10;99.90;;;;;;5024917;28;20237;-51
2023/03/27 12:22:17;;;;;;;1999.90;999.90;;;8.40;99.90;;;;;;5027429;28;20626;-51
2023/03/27 12:25:06;;;;;;;1999.90;999.90;;;8.30;99.90;;;;;;5028401;28;20203;-51
2023/03/27 12:27:46;;;;;;;1999.90;995.13;;;7.90;99.90;;;;;;5022152;28;20301;-51
2023/03/27 12:30:26;;;;;;;1999.90;797.53;;;7.90;99.90;;;;;;5027710;28;20222;-51
2023/03/27 12:33:31;;;;;;;1999.90;999.90;;;7.80;99.90;;;;;;5027668;28;20301;-51
2023/03/27 12:36:04;;;;;;;1999.90;999.90;;;7.60;99.90;;;;;;5026876;28;20246;-52
2023/03/27 12:38:36;;;;;;;1999.90;999.90;;;7.50;99.90;;;;;;5015185;28;20694;-50
2023/03/27 12:41:12;;;;;;;1999.90;999.90;;;7.60;99.90;;;;;;5030313;28;20312;-51